This is the latest recevied weather packets stored in our database for station/object W4BOD. If no packets are shown the sender has not sent any weather packets the latest 10 day(s).
| Time | Temp. | Humidity | Pressure | Rain* | Wind** | Luminosity | Snow |
|---|---|---|---|---|---|---|---|
| 1788128623 | 34.44° C | 55% | 1017.3 hPa | 0 mm | - | 165 W/m² | - |
| 1788128318 | 34.44° C | 55% | 1017.2 hPa | 0 mm | - | 179 W/m² | - |
| 1788128015 | 34.44° C | 58% | 1017.6 hPa | 0 mm | - | 106 W/m² | - |
| 1788127710 | 35° C | 54% | 1017.4 hPa | 0 mm | - | 93 W/m² | - |
| 1788127404 | 35.56° C | 53% | 1017.5 hPa | 0 mm | - | 104 W/m² | - |
| 1788127102 | 35.56° C | 53% | 1017.4 hPa | 0 mm | - | 115 W/m² | - |
| 1788126797 | 35.56° C | 50% | 1017.3 hPa | 0 mm | - | 143 W/m² | - |
| 1788126492 | 36.11° C | 51% | 1017.3 hPa | 0 mm | - | 158 W/m² | - |
| 1788126187 | 36.11° C | 50% | 1017.3 hPa | 0 mm | - | 166 W/m² | - |
| 1788125886 | 35.56° C | 53% | 1017.2 hPa | 0 mm | - | 340 W/m² | - |
| 1788125581 | 36.67° C | 49% | 1017.2 hPa | 0 mm | - | 366 W/m² | - |
| 1788125277 | 35.56° C | 52% | 1017.4 hPa | 0 mm | - | 151 W/m² | - |
| 1788124973 | 35.56° C | 53% | 1017.3 hPa | 0 mm | - | 211 W/m² | - |
| 1788124672 | 35° C | 53% | 1017.5 hPa | 0 mm | - | 179 W/m² | - |
| 1788124371 | 36.11° C | 52% | 1017.4 hPa | 0 mm | - | 164 W/m² | - |
| 1788124068 | 36.11° C | 53% | 1017.4 hPa | 0 mm | - | 471 W/m² | - |
| 1788123766 | 35.56° C | 53% | 1017.4 hPa | 0 mm | - | 474 W/m² | - |
| 1788123464 | 36.11° C | 53% | 1017.7 hPa | 0 mm | - | 496 W/m² | - |
| 1788123159 | 36.11° C | 53% | 1017.6 hPa | 0 mm | - | 494 W/m² | - |
| 1788122854 | 35° C | 55% | 1017.7 hPa | 0 mm | - | 531 W/m² | - |
| 1788122552 | 35.56° C | 52% | 1017.7 hPa | 0 mm | - | 322 W/m² | - |
| 1788122249 | 35° C | 56% | 1017.8 hPa | 0 mm | - | 554 W/m² | - |
| 1788121939 | 35° C | 55% | 1017.9 hPa | 0 mm | - | 570 W/m² | - |
| 1788121638 | 34.44° C | 56% | 1017.9 hPa | 0 mm | - | 518 W/m² | - |
| 1788121334 | 35° C | 55% | 1018 hPa | 0 mm | - | 130 W/m² | - |
* Rain latest hour (hover to see other rain measurements)
** Current wind speed in m/s (hover to see current wind gust speed)